^^
Your Local Weather - Clay, NY Station Historical Data
Daily Summary for January 26, 2018 Units:  Both    English   Metric
« Previous Day
Next Day »
Daily Weekly Monthly Yearly Custom
  High: Low: Average:
Temperature: 38.8 °F /  3.8 °C 11.2 °F /  -11.6 °C 23.2 °F /  -4.9 °C
Dew Point: 22.2 °F /  -5.4 °C 7.0 °F /  -13.9 °C 14.2 °F /  -9.9 °C
Humidity: 84% 49% 70%
Wind Speed: 6.0mph /  9.7km/h - 2mph /  3.2km/h
Wind Gust: 11.0mph /  17.7km/h - -
Wind- - East
Pressure: 30.63 in /  1037.1 hPa 30.35 in /  1027.7 hPa -
Precipitation: 0.03 in /  0.76 mm    
Historical Graphs
 
 
Tabular Data for January 26, 2018
Time Temperature Dew Point Pressure Wind Wind Speed Wind Gust Humidity Rainfall Rate (Hourly) solar
00:00 14.7 °F /  -9.6 °C 7.6 °F /  -13.6 °C 30.57in /  1035.1hPa Calm     73% 0.00in /  0mm 0 W/m2
00:05 14.6 °F /  -9.7 °C 7.5 °F /  -13.6 °C 30.57in /  1035.1hPa Calm     73% 0.00in /  0mm 0 W/m2
00:12 14.3 °F /  -9.8 °C 7.5 °F /  -13.6 °C 30.57in /  1035.1hPa Calm     74% 0.00in /  0mm 0 W/m2
00:18 14.1 °F /  -9.9 °C 7.3 °F /  -13.7 °C 30.57in /  1035.1hPa Calm     74% 0.00in /  0mm 0 W/m2
00:24 14.0 °F /  -10 °C 7.5 °F /  -13.6 °C 30.57in /  1035.1hPa Calm     75% 0.00in /  0mm 0 W/m2
00:29 13.8 °F /  -10.1 °C 7.6 °F /  -13.6 °C 30.57in /  1035.1hPa Calm     76% 0.00in /  0mm 0 W/m2
00:35 13.8 °F /  -10.1 °C 8.2 °F /  -13.2 °C 30.57in /  1035.1hPa Calm     78% 0.00in /  0mm 0 W/m2
00:42 13.6 °F /  -10.2 °C 8.0 °F /  -13.3 °C 30.57in /  1035.1hPa Calm     78% 0.00in /  0mm 0 W/m2
00:48 13.5 °F /  -10.3 °C 8.2 °F /  -13.2 °C 30.57in /  1035.1hPa Calm     79% 0.00in /  0mm 0 W/m2
00:53 13.3 °F /  -10.4 °C 8.0 °F /  -13.3 °C 30.57in /  1035.1hPa Calm     79% 0.00in /  0mm 0 W/m2
00:59 13.2 °F /  -10.4 °C 7.9 °F /  -13.4 °C 30.57in /  1035.1hPa Calm     79% 0.00in /  0mm 0 W/m2
01:05 13.2 °F /  -10.4 °C 7.9 °F /  -13.4 °C 30.57in /  1035.1hPa Calm     79% 0.00in /  0mm 0 W/m2
01:12 13.3 °F /  -10.4 °C 8.0 °F /  -13.3 °C 30.57in /  1035.1hPa Calm     79% 0.00in /  0mm 0 W/m2
01:18 13.2 °F /  -10.4 °C 8.2 °F /  -13.2 °C 30.57in /  1035.1hPa Calm     80% 0.00in /  0mm 0 W/m2
01:23 13.1 °F /  -10.5 °C 8.1 °F /  -13.3 °C 30.57in /  1035.1hPa Calm     80% 0.00in /  0mm 0 W/m2
01:30 13.1 °F /  -10.5 °C 8.4 °F /  -13.1 °C 30.57in /  1035.1hPa Calm     81% 0.00in /  0mm 0 W/m2
01:35 13.0 °F /  -10.6 °C 8.3 °F /  -13.2 °C 30.57in /  1035.1hPa Calm     81% 0.00in /  0mm 0 W/m2
01:42 12.9 °F /  -10.6 °C 8.2 °F /  -13.2 °C 30.57in /  1035.1hPa Calm     81% 0.00in /  0mm 0 W/m2
01:48 12.9 °F /  -10.6 °C 8.4 °F /  -13.1 °C 30.57in /  1035.1hPa Calm     82% 0.00in /  0mm 0 W/m2
01:53 12.8 °F /  -10.7 °C 8.3 °F /  -13.2 °C 30.58in /  1035.4hPa Calm     82% 0.00in /  0mm 0 W/m2
01:59 12.7 °F /  -10.7 °C 8.2 °F /  -13.2 °C 30.58in /  1035.4hPa Calm     82% 0.00in /  0mm 0 W/m2
02:05 12.7 °F /  -10.7 °C 8.2 °F /  -13.2 °C 30.58in /  1035.4hPa Calm     82% 0.00in /  0mm 0 W/m2
02:12 12.7 °F /  -10.7 °C 8.2 °F /  -13.2 °C 30.59in /  1035.8hPa Calm     82% 0.00in /  0mm 0 W/m2
02:18 12.7 °F /  -10.7 °C 8.2 °F /  -13.2 °C 30.59in /  1035.8hPa Calm     82% 0.00in /  0mm 0 W/m2
02:24 12.7 °F /  -10.7 °C 8.2 °F /  -13.2 °C 30.59in /  1035.8hPa Calm     82% 0.00in /  0mm 0 W/m2
02:29 12.7 °F /  -10.7 °C 8.2 °F /  -13.2 °C 30.59in /  1035.8hPa Calm     82% 0.00in /  0mm 0 W/m2
02:35 12.8 °F /  -10.7 °C 8.3 °F /  -13.2 °C 30.59in /  1035.8hPa Calm     82% 0.00in /  0mm 0 W/m2
02:42 12.9 °F /  -10.6 °C 8.4 °F /  -13.1 °C 30.59in /  1035.8hPa Calm     82% 0.00in /  0mm 0 W/m2
02:48 13.0 °F /  -10.6 °C 8.5 °F /  -13.1 °C 30.59in /  1035.8hPa Calm   1.0mph /  1.6km/h 82% 0.00in /  0mm 0 W/m2
02:54 13.0 °F /  -10.6 °C 8.5 °F /  -13.1 °C 30.58in /  1035.4hPa Calm     82% 0.00in /  0mm 0 W/m2
02:59 12.8 °F /  -10.7 °C 8.3 °F /  -13.2 °C 30.58in /  1035.4hPa Calm     82% 0.00in /  0mm 0 W/m2
03:05 12.9 °F /  -10.6 °C 8.4 °F /  -13.1 °C 30.58in /  1035.4hPa ENE 1.0mph /  1.6km/h 1.0mph /  1.6km/h 82% 0.00in /  0mm 0 W/m2
03:12 12.8 °F /  -10.7 °C 8.3 °F /  -13.2 °C 30.58in /  1035.4hPa ENE 1.0mph /  1.6km/h 1.0mph /  1.6km/h 82% 0.00in /  0mm 0 W/m2
03:18 12.9 °F /  -10.6 °C 8.4 °F /  -13.1 °C 30.58in /  1035.4hPa ENE 1.0mph /  1.6km/h 1.0mph /  1.6km/h 82% 0.00in /  0mm 0 W/m2
03:23 12.8 °F /  -10.7 °C 8.3 °F /  -13.2 °C 30.58in /  1035.4hPa Calm   1.0mph /  1.6km/h 82% 0.00in /  0mm 0 W/m2
03:29 12.7 °F /  -10.7 °C 8.2 °F /  -13.2 °C 30.59in /  1035.8hPa Calm     82% 0.00in /  0mm 0 W/m2
03:35 12.6 °F /  -10.8 °C 8.1 °F /  -13.3 °C 30.59in /  1035.8hPa Calm     82% 0.00in /  0mm 0 W/m2
03:42 12.5 °F /  -10.8 °C 8.0 °F /  -13.3 °C 30.59in /  1035.8hPa Calm     82% 0.00in /  0mm 0 W/m2
03:48 12.4 °F /  -10.9 °C 8.0 °F /  -13.3 °C 30.58in /  1035.4hPa Calm     82% 0.00in /  0mm 0 W/m2
03:53 12.4 °F /  -10.9 °C 8.0 °F /  -13.3 °C 30.58in /  1035.4hPa Calm     82% 0.00in /  0mm 0 W/m2
04:00 12.2 °F /  -11 °C 7.8 °F /  -13.4 °C 30.58in /  1035.4hPa Calm   1.0mph /  1.6km/h 82% 0.00in /  0mm 0 W/m2
04:05 12.3 °F /  -10.9 °C 8.1 °F /  -13.3 °C 30.59in /  1035.8hPa Calm   1.0mph /  1.6km/h 83% 0.00in /  0mm 0 W/m2
04:12 12.2 °F /  -11 °C 8.0 °F /  -13.3 °C 30.59in /  1035.8hPa Calm     83% 0.00in /  0mm 0 W/m2
04:18 12.4 °F /  -10.9 °C 8.2 °F /  -13.2 °C 30.58in /  1035.4hPa Calm   2.0mph /  3.2km/h 83% 0.00in /  0mm 0 W/m2
04:23 12.4 °F /  -10.9 °C 8.2 °F /  -13.2 °C 30.58in /  1035.4hPa ENE 1.0mph /  1.6km/h 4.0mph /  6.4km/h 83% 0.00in /  0mm 0 W/m2
04:29 12.5 °F /  -10.8 °C 8.3 °F /  -13.2 °C 30.58in /  1035.4hPa ENE 1.0mph /  1.6km/h 1.0mph /  1.6km/h 83% 0.00in /  0mm 0 W/m2
04:36 12.5 °F /  -10.8 °C 8.0 °F /  -13.3 °C 30.58in /  1035.4hPa ENE 1.0mph /  1.6km/h 1.0mph /  1.6km/h 82% 0.00in /  0mm 0 W/m2
04:42 12.7 °F /  -10.7 °C 8.2 °F /  -13.2 °C 30.58in /  1035.4hPa Calm   1.0mph /  1.6km/h 82% 0.00in /  0mm 0 W/m2
04:48 12.7 °F /  -10.7 °C 8.0 °F /  -13.3 °C 30.59in /  1035.8hPa Calm   1.0mph /  1.6km/h 81% 0.00in /  0mm 0 W/m2
04:53 12.7 °F /  -10.7 °C 8.0 °F /  -13.3 °C 30.59in /  1035.8hPa Calm   1.0mph /  1.6km/h 81% 0.00in /  0mm 0 W/m2
05:00 12.6 °F /  -10.8 °C 7.9 °F /  -13.4 °C 30.59in /  1035.8hPa Calm     81% 0.00in /  0mm 0 W/m2
05:05 12.4 °F /  -10.9 °C 7.7 °F /  -13.5 °C 30.60in /  1036.1hPa Calm     81% 0.00in /  0mm 0 W/m2
05:12 12.3 °F /  -10.9 °C 7.6 °F /  -13.6 °C 30.60in /  1036.1hPa Calm     81% 0.00in /  0mm 0 W/m2
05:18 12.1 °F /  -11.1 °C 7.4 °F /  -13.7 °C 30.60in /  1036.1hPa Calm   1.0mph /  1.6km/h 81% 0.00in /  0mm 0 W/m2
05:23 12.0 °F /  -11.1 °C 7.3 °F /  -13.7 °C 30.60in /  1036.1hPa Calm   1.0mph /  1.6km/h 81% 0.00in /  0mm 0 W/m2
05:29 12.0 °F /  -11.1 °C 7.6 °F /  -13.6 °C 30.60in /  1036.1hPa Calm     82% 0.00in /  0mm 0 W/m2
05:35 12.0 °F /  -11.1 °C 7.6 °F /  -13.6 °C 30.61in /  1036.5hPa Calm     82% 0.00in /  0mm 0 W/m2
05:42 12.1 °F /  -11.1 °C 7.7 °F /  -13.5 °C 30.61in /  1036.5hPa Calm     82% 0.00in /  0mm 0 W/m2
05:48 12.1 °F /  -11.1 °C 7.7 °F /  -13.5 °C 30.62in /  1036.8hPa Calm     82% 0.00in /  0mm 0 W/m2
05:53 11.9 °F /  -11.2 °C 7.5 °F /  -13.6 °C 30.62in /  1036.8hPa Calm     82% 0.00in /  0mm 0 W/m2
05:59 11.9 °F /  -11.2 °C 7.5 °F /  -13.6 °C 30.62in /  1036.8hPa Calm   1.0mph /  1.6km/h 82% 0.00in /  0mm 0 W/m2
06:05 11.8 °F /  -11.2 °C 7.4 °F /  -13.7 °C 30.62in /  1036.8hPa ENE 1.0mph /  1.6km/h 1.0mph /  1.6km/h 82% 0.00in /  0mm 0 W/m2
06:12 11.7 °F /  -11.3 °C 7.3 °F /  -13.7 °C 30.62in /  1036.8hPa Calm   1.0mph /  1.6km/h 82% 0.00in /  0mm 0 W/m2
06:18 11.6 °F /  -11.3 °C 7.2 °F /  -13.8 °C 30.62in /  1036.8hPa Calm   1.0mph /  1.6km/h 82% 0.00in /  0mm 0 W/m2
06:24 11.8 °F /  -11.2 °C 7.6 °F /  -13.6 °C 30.62in /  1036.8hPa ENE 1.0mph /  1.6km/h 2.0mph /  3.2km/h 83% 0.00in /  0mm 0 W/m2
06:29 11.8 °F /  -11.2 °C 7.4 °F /  -13.7 °C 30.62in /  1036.8hPa ENE 1.0mph /  1.6km/h 1.0mph /  1.6km/h 82% 0.00in /  0mm 0 W/m2
06:35 11.7 °F /  -11.3 °C 7.3 °F /  -13.7 °C 30.62in /  1036.8hPa ENE 1.0mph /  1.6km/h 2.0mph /  3.2km/h 82% 0.00in /  0mm 0 W/m2
06:42 11.8 °F /  -11.2 °C 7.4 °F /  -13.7 °C 30.62in /  1036.8hPa ENE 1.0mph /  1.6km/h 1.0mph /  1.6km/h 82% 0.00in /  0mm 0 W/m2
06:48 11.7 °F /  -11.3 °C 7.3 °F /  -13.7 °C 30.62in /  1036.8hPa ENE 1.0mph /  1.6km/h 2.0mph /  3.2km/h 82% 0.00in /  0mm 0 W/m2
06:54 11.6 °F /  -11.3 °C 7.2 °F /  -13.8 °C 30.62in /  1036.8hPa Calm   1.0mph /  1.6km/h 82% 0.00in /  0mm 0 W/m2
06:59 11.6 °F /  -11.3 °C 7.2 °F /  -13.8 °C 30.62in /  1036.8hPa ENE 1.0mph /  1.6km/h 1.0mph /  1.6km/h 82% 0.00in /  0mm 0 W/m2
07:05 11.5 °F /  -11.4 °C 7.1 °F /  -13.8 °C 30.62in /  1036.8hPa ENE 1.0mph /  1.6km/h 1.0mph /  1.6km/h 82% 0.00in /  0mm 0 W/m2
07:12 11.4 °F /  -11.4 °C 7.2 °F /  -13.8 °C 30.63in /  1037.1hPa Calm   2.0mph /  3.2km/h 83% 0.00in /  0mm 0 W/m2
07:18 11.4 °F /  -11.4 °C 7.2 °F /  -13.8 °C 30.63in /  1037.1hPa Calm   2.0mph /  3.2km/h 83% 0.00in /  0mm 0 W/m2
07:23 11.3 °F /  -11.5 °C 7.1 °F /  -13.8 °C 30.62in /  1036.8hPa Calm     83% 0.00in /  0mm 5 W/m2
07:30 11.2 °F /  -11.6 °C 7.0 °F /  -13.9 °C 30.62in /  1036.8hPa Calm     83% 0.00in /  0mm 7 W/m2
07:35 11.2 °F /  -11.6 °C 7.0 °F /  -13.9 °C 30.63in /  1037.1hPa Calm     83% 0.00in /  0mm 9 W/m2
07:42 11.2 °F /  -11.6 °C 7.0 °F /  -13.9 °C 30.63in /  1037.1hPa Calm     83% 0.00in /  0mm 12 W/m2
07:48 11.3 °F /  -11.5 °C 7.1 °F /  -13.8 °C 30.63in /  1037.1hPa Calm   1.0mph /  1.6km/h 83% 0.00in /  0mm 16 W/m2
07:53 11.3 °F /  -11.5 °C 7.1 °F /  -13.8 °C 30.63in /  1037.1hPa Calm   1.0mph /  1.6km/h 83% 0.00in /  0mm 19 W/m2
08:00 11.4 °F /  -11.4 °C 7.2 °F /  -13.8 °C 30.63in /  1037.1hPa Calm     83% 0.00in /  0mm 21 W/m2
08:06 11.7 °F /  -11.3 °C 7.8 °F /  -13.4 °C 30.62in /  1036.8hPa ENE 1.0mph /  1.6km/h 4.0mph /  6.4km/h 84% 0.00in /  0mm 23 W/m2
08:12 11.9 °F /  -11.2 °C 7.7 °F /  -13.5 °C 30.63in /  1037.1hPa ENE 1.0mph /  1.6km/h 3.0mph /  4.8km/h 83% 0.00in /  0mm 25 W/m2
08:18 12.2 °F /  -11 °C 8.0 °F /  -13.3 °C 30.63in /  1037.1hPa East 1.0mph /  1.6km/h 3.0mph /  4.8km/h 83% 0.00in /  0mm 30 W/m2
08:23 12.5 °F /  -10.8 °C 8.3 °F /  -13.2 °C 30.63in /  1037.1hPa East 1.0mph /  1.6km/h 2.0mph /  3.2km/h 83% 0.00in /  0mm 70 W/m2
08:30 12.8 °F /  -10.7 °C 8.3 °F /  -13.2 °C 30.62in /  1036.8hPa East 1.0mph /  1.6km/h 1.0mph /  1.6km/h 82% 0.00in /  0mm 134 W/m2
08:35 13.3 °F /  -10.4 °C 8.8 °F /  -12.9 °C 30.62in /  1036.8hPa East 2.0mph /  3.2km/h 3.0mph /  4.8km/h 82% 0.00in /  0mm 134 W/m2
08:42 13.9 °F /  -10.1 °C 9.1 °F /  -12.7 °C 30.62in /  1036.8hPa ESE 2.0mph /  3.2km/h 2.0mph /  3.2km/h 81% 0.00in /  0mm 172 W/m2
08:48 14.8 °F /  -9.6 °C 9.7 °F /  -12.4 °C 30.63in /  1037.1hPa ENE 2.0mph /  3.2km/h 2.0mph /  3.2km/h 80% 0.00in /  0mm 193 W/m2
08:54 15.3 °F /  -9.3 °C 10.0 °F /  -12.2 °C 30.63in /  1037.1hPa East 2.0mph /  3.2km/h 2.0mph /  3.2km/h 79% 0.00in /  0mm 202 W/m2
08:59 15.9 °F /  -8.9 °C 10.0 °F /  -12.2 °C 30.63in /  1037.1hPa ENE 2.0mph /  3.2km/h 3.0mph /  4.8km/h 77% 0.00in /  0mm 216 W/m2
09:05 16.6 °F /  -8.6 °C 10.6 °F /  -11.9 °C 30.62in /  1036.8hPa ESE 2.0mph /  3.2km/h 3.0mph /  4.8km/h 77% 0.00in /  0mm 230 W/m2
09:12 17.3 °F /  -8.2 °C 10.7 °F /  -11.8 °C 30.62in /  1036.8hPa ESE 1.0mph /  1.6km/h 2.0mph /  3.2km/h 75% 0.00in /  0mm 246 W/m2
09:18 17.7 °F /  -7.9 °C 11.1 °F /  -11.6 °C 30.62in /  1036.8hPa ENE 2.0mph /  3.2km/h 3.0mph /  4.8km/h 75% 0.00in /  0mm 260 W/m2
09:23 18.2 °F /  -7.7 °C 11.3 °F /  -11.5 °C 30.62in /  1036.8hPa ENE 2.0mph /  3.2km/h 3.0mph /  4.8km/h 74% 0.00in /  0mm 274 W/m2
09:29 18.4 °F /  -7.6 °C 11.2 °F /  -11.6 °C 30.62in /  1036.8hPa ENE 3.0mph /  4.8km/h 3.0mph /  4.8km/h 73% 0.00in /  0mm 290 W/m2
09:36 18.5 °F /  -7.5 °C 11.3 °F /  -11.5 °C 30.62in /  1036.8hPa East 3.0mph /  4.8km/h 5.0mph /  8km/h 73% 0.00in /  0mm 306 W/m2
09:42 19.9 °F /  -6.7 °C 12.3 °F /  -10.9 °C 30.62in /  1036.8hPa East 3.0mph /  4.8km/h 3.0mph /  4.8km/h 72% 0.00in /  0mm 322 W/m2
09:48 20.0 °F /  -6.7 °C 12.1 °F /  -11.1 °C 30.62in /  1036.8hPa East 3.0mph /  4.8km/h 3.0mph /  4.8km/h 71% 0.00in /  0mm 339 W/m2
09:53 20.6 °F /  -6.3 °C 12.0 °F /  -11.1 °C 30.62in /  1036.8hPa ESE 2.0mph /  3.2km/h 5.0mph /  8km/h 69% 0.00in /  0mm 350 W/m2
10:00 20.6 °F /  -6.3 °C 12.4 °F /  -10.9 °C 30.61in /  1036.5hPa NE 2.0mph /  3.2km/h 2.0mph /  3.2km/h 70% 0.00in /  0mm 364 W/m2
10:06 21.1 °F /  -6.1 °C 12.5 °F /  -10.8 °C 30.61in /  1036.5hPa SE 2.0mph /  3.2km/h 3.0mph /  4.8km/h 69% 0.00in /  0mm 371 W/m2
10:12 21.6 °F /  -5.8 °C 13.0 °F /  -10.6 °C 30.61in /  1036.5hPa East 2.0mph /  3.2km/h 3.0mph /  4.8km/h 69% 0.00in /  0mm 385 W/m2
10:18 22.1 °F /  -5.5 °C 12.5 °F /  -10.8 °C 30.60in /  1036.1hPa ENE 2.0mph /  3.2km/h 7.0mph /  11.3km/h 66% 0.00in /  0mm 396 W/m2
10:23 22.6 °F /  -5.2 °C 13.3 °F /  -10.4 °C 30.60in /  1036.1hPa ENE 3.0mph /  4.8km/h 4.0mph /  6.4km/h 67% 0.00in /  0mm 406 W/m2
10:29 22.7 °F /  -5.2 °C 13.7 °F /  -10.2 °C 30.60in /  1036.1hPa East 3.0mph /  4.8km/h 5.0mph /  8km/h 68% 0.00in /  0mm 417 W/m2
10:36 23.7 °F /  -4.6 °C 14.3 °F /  -9.8 °C 30.60in /  1036.1hPa SE 3.0mph /  4.8km/h 5.0mph /  8km/h 67% 0.00in /  0mm 425 W/m2
10:42 24.3 °F /  -4.3 °C 14.6 °F /  -9.7 °C 30.60in /  1036.1hPa SE 3.0mph /  4.8km/h 3.0mph /  4.8km/h 66% 0.00in /  0mm 436 W/m2
10:48 24.9 °F /  -3.9 °C 14.4 °F /  -9.8 °C 30.59in /  1035.8hPa East 3.0mph /  4.8km/h 5.0mph /  8km/h 64% 0.00in /  0mm 445 W/m2
10:53 25.3 °F /  -3.7 °C 14.8 °F /  -9.6 °C 30.59in /  1035.8hPa ENE 3.0mph /  4.8km/h 3.0mph /  4.8km/h 64% 0.00in /  0mm 454 W/m2
11:00 26.0 °F /  -3.3 °C 15.1 °F /  -9.4 °C 30.58in /  1035.4hPa ENE 3.0mph /  4.8km/h 5.0mph /  8km/h 63% 0.00in /  0mm 461 W/m2
11:06 26.8 °F /  -2.9 °C 15.9 °F /  -8.9 °C 30.58in /  1035.4hPa ENE 3.0mph /  4.8km/h 7.0mph /  11.3km/h 63% 0.00in /  0mm 466 W/m2
11:12 26.9 °F /  -2.8 °C 16.0 °F /  -8.9 °C 30.58in /  1035.4hPa ESE 3.0mph /  4.8km/h 3.0mph /  4.8km/h 63% 0.00in /  0mm 471 W/m2
11:18 26.9 °F /  -2.8 °C 16.0 °F /  -8.9 °C 30.58in /  1035.4hPa ENE 3.0mph /  4.8km/h 7.0mph /  11.3km/h 63% 0.00in /  0mm 478 W/m2
11:25 27.8 °F /  -2.3 °C 16.5 °F /  -8.6 °C 30.57in /  1035.1hPa ESE 3.0mph /  4.8km/h 5.0mph /  8km/h 62% 0.00in /  0mm 483 W/m2
11:32 27.7 °F /  -2.4 °C 16.7 °F /  -8.5 °C 30.57in /  1035.1hPa East 3.0mph /  4.8km/h 3.0mph /  4.8km/h 63% 0.00in /  0mm 485 W/m2
11:38 28.4 °F /  -2 °C 17.0 °F /  -8.3 °C 30.56in /  1034.8hPa ESE 4.0mph /  6.4km/h 4.0mph /  6.4km/h 62% 0.00in /  0mm 489 W/m2
11:43 28.7 °F /  -1.8 °C 17.3 °F /  -8.2 °C 30.55in /  1034.4hPa SSE 4.0mph /  6.4km/h 6.0mph /  9.7km/h 62% 0.00in /  0mm 489 W/m2
11:49 28.9 °F /  -1.7 °C 17.1 °F /  -8.3 °C 30.55in /  1034.4hPa ENE 4.0mph /  6.4km/h 4.0mph /  6.4km/h 61% 0.00in /  0mm 492 W/m2
11:55 29.2 °F /  -1.6 °C 17.4 °F /  -8.1 °C 30.55in /  1034.4hPa East 4.0mph /  6.4km/h 5.0mph /  8km/h 61% 0.00in /  0mm 490 W/m2
12:02 29.3 °F /  -1.5 °C 17.5 °F /  -8.1 °C 30.54in /  1034.1hPa ENE 4.0mph /  6.4km/h 4.0mph /  6.4km/h 61% 0.00in /  0mm 492 W/m2
12:08 29.5 °F /  -1.4 °C 17.7 °F /  -7.9 °C 30.54in /  1034.1hPa SE 4.0mph /  6.4km/h 7.0mph /  11.3km/h 61% 0.00in /  0mm 494 W/m2
12:14 29.9 °F /  -1.2 °C 17.3 °F /  -8.2 °C 30.53in /  1033.7hPa ENE 3.0mph /  4.8km/h 7.0mph /  11.3km/h 59% 0.00in /  0mm 490 W/m2
12:19 30.4 °F /  -0.9 °C 18.2 °F /  -7.7 °C 30.53in /  1033.7hPa East 3.0mph /  4.8km/h 3.0mph /  4.8km/h 60% 0.00in /  0mm 489 W/m2
12:25 30.8 °F /  -0.7 °C 18.1 °F /  -7.7 °C 30.52in /  1033.4hPa East 3.0mph /  4.8km/h 6.0mph /  9.7km/h 59% 0.00in /  0mm 504 W/m2
12:32 31.2 °F /  -0.4 °C 18.9 °F /  -7.3 °C 30.52in /  1033.4hPa SE 3.0mph /  4.8km/h 3.0mph /  4.8km/h 60% 0.00in /  0mm 461 W/m2
12:38 31.1 °F /  -0.5 °C 18.4 °F /  -7.6 °C 30.51in /  1033.1hPa ESE 3.0mph /  4.8km/h 3.0mph /  4.8km/h 59% 0.00in /  0mm 316 W/m2
12:43 30.6 °F /  -0.8 °C 18.7 °F /  -7.4 °C 30.51in /  1033.1hPa East 4.0mph /  6.4km/h 5.0mph /  8km/h 61% 0.00in /  0mm 295 W/m2
12:49 30.4 °F /  -0.9 °C 17.8 °F /  -7.9 °C 30.50in /  1032.7hPa East 4.0mph /  6.4km/h 6.0mph /  9.7km/h 59% 0.00in /  0mm 563 W/m2
12:55 30.3 °F /  -0.9 °C 17.7 °F /  -7.9 °C 30.50in /  1032.7hPa NE 5.0mph /  8km/h 7.0mph /  11.3km/h 59% 0.00in /  0mm 496 W/m2
13:02 31.2 °F /  -0.4 °C 18.5 °F /  -7.5 °C 30.49in /  1032.4hPa ENE 4.0mph /  6.4km/h 5.0mph /  8km/h 59% 0.00in /  0mm 478 W/m2
13:08 31.6 °F /  -0.2 °C 18.5 °F /  -7.5 °C 30.49in /  1032.4hPa East 4.0mph /  6.4km/h 5.0mph /  8km/h 58% 0.00in /  0mm 471 W/m2
13:13 32.5 °F /  0.3 °C 19.3 °F /  -7.1 °C 30.49in /  1032.4hPa ENE 3.0mph /  4.8km/h 3.0mph /  4.8km/h 58% 0.00in /  0mm 468 W/m2
13:20 32.5 °F /  0.3 °C 18.5 °F /  -7.5 °C 30.48in /  1032.1hPa ENE 3.0mph /  4.8km/h 4.0mph /  6.4km/h 56% 0.00in /  0mm 466 W/m2
13:25 32.7 °F /  0.4 °C 19.1 °F /  -7.2 °C 30.48in /  1032.1hPa NNE 4.0mph /  6.4km/h 6.0mph /  9.7km/h 57% 0.00in /  0mm 455 W/m2
13:32 33.4 °F /  0.8 °C 19.8 °F /  -6.8 °C 30.47in /  1031.7hPa ENE 3.0mph /  4.8km/h 3.0mph /  4.8km/h 57% 0.00in /  0mm 380 W/m2
13:38 34.4 °F /  1.3 °C 19.5 °F /  -6.9 °C 30.46in /  1031.4hPa SE 2.0mph /  3.2km/h 3.0mph /  4.8km/h 54% 0.00in /  0mm 443 W/m2
13:43 35.6 °F /  2 °C 19.7 °F /  -6.8 °C 30.47in /  1031.7hPa SE 4.0mph /  6.4km/h 6.0mph /  9.7km/h 52% 0.00in /  0mm 438 W/m2
13:49 36.2 °F /  2.3 °C 19.3 °F /  -7.1 °C 30.47in /  1031.7hPa SE 6.0mph /  9.7km/h 6.0mph /  9.7km/h 50% 0.00in /  0mm 434 W/m2
13:55 37.0 °F /  2.8 °C 19.6 °F /  -6.9 °C 30.46in /  1031.4hPa ESE 5.0mph /  8km/h 6.0mph /  9.7km/h 49% 0.00in /  0mm 404 W/m2
14:02 36.8 °F /  2.7 °C 19.9 °F /  -6.7 °C 30.46in /  1031.4hPa SSE 5.0mph /  8km/h 8.0mph /  12.9km/h 50% 0.00in /  0mm 359 W/m2
14:08 37.2 °F /  2.9 °C 20.7 °F /  -6.3 °C 30.46in /  1031.4hPa SE 5.0mph /  8km/h 8.0mph /  12.9km/h 51% 0.00in /  0mm 371 W/m2
14:14 36.8 °F /  2.7 °C 19.4 °F /  -7 °C 30.46in /  1031.4hPa SSE 5.0mph /  8km/h 9.0mph /  14.5km/h 49% 0.00in /  0mm 330 W/m2
14:19 36.7 °F /  2.6 °C 19.8 °F /  -6.8 °C 30.46in /  1031.4hPa ESE 6.0mph /  9.7km/h 6.0mph /  9.7km/h 50% 0.00in /  0mm 253 W/m2
14:25 36.8 °F /  2.7 °C 19.9 °F /  -6.7 °C 30.46in /  1031.4hPa East 6.0mph /  9.7km/h 11.0mph /  17.7km/h 50% 0.00in /  0mm 313 W/m2
14:32 37.3 °F /  2.9 °C 19.9 °F /  -6.7 °C 30.45in /  1031hPa East 5.0mph /  8km/h 6.0mph /  9.7km/h 49% 0.00in /  0mm 323 W/m2
14:38 37.6 °F /  3.1 °C 20.1 °F /  -6.6 °C 30.45in /  1031hPa ESE 6.0mph /  9.7km/h 6.0mph /  9.7km/h 49% 0.00in /  0mm 306 W/m2
14:43 37.6 °F /  3.1 °C 20.6 °F /  -6.3 °C 30.45in /  1031hPa East 5.0mph /  8km/h 5.0mph /  8km/h 50% 0.00in /  0mm 258 W/m2
14:49 37.5 °F /  3.1 °C 21.0 °F /  -6.1 °C 30.44in /  1030.7hPa SE 4.0mph /  6.4km/h 5.0mph /  8km/h 51% 0.00in /  0mm 239 W/m2
14:56 37.6 °F /  3.1 °C 20.6 °F /  -6.3 °C 30.44in /  1030.7hPa SSE 4.0mph /  6.4km/h 5.0mph /  8km/h 50% 0.00in /  0mm 237 W/m2
15:02 37.8 °F /  3.2 °C 20.3 °F /  -6.5 °C 30.44in /  1030.7hPa SE 4.0mph /  6.4km/h 6.0mph /  9.7km/h 49% 0.00in /  0mm 276 W/m2
15:08 37.9 °F /  3.3 °C 21.8 °F /  -5.7 °C 30.44in /  1030.7hPa SE 4.0mph /  6.4km/h 7.0mph /  11.3km/h 52% 0.00in /  0mm 311 W/m2
15:13 38.4 °F /  3.6 °C 21.4 °F /  -5.9 °C 30.44in /  1030.7hPa South 4.0mph /  6.4km/h 4.0mph /  6.4km/h 50% 0.00in /  0mm 283 W/m2
15:19 38.3 °F /  3.5 °C 20.8 °F /  -6.2 °C 30.44in /  1030.7hPa SSE 4.0mph /  6.4km/h 7.0mph /  11.3km/h 49% 0.00in /  0mm 287 W/m2
15:25 38.3 °F /  3.5 °C 21.3 °F /  -5.9 °C 30.44in /  1030.7hPa SE 6.0mph /  9.7km/h 7.0mph /  11.3km/h 50% 0.00in /  0mm 271 W/m2
15:32 38.2 °F /  3.4 °C 21.6 °F /  -5.8 °C 30.43in /  1030.4hPa SSE 5.0mph /  8km/h 8.0mph /  12.9km/h 51% 0.00in /  0mm 257 W/m2
15:38 38.5 °F /  3.6 °C 21.5 °F /  -5.8 °C 30.43in /  1030.4hPa SSE 4.0mph /  6.4km/h 8.0mph /  12.9km/h 50% 0.00in /  0mm 230 W/m2
15:44 38.6 °F /  3.7 °C 21.1 °F /  -6.1 °C 30.43in /  1030.4hPa SE 3.0mph /  4.8km/h 6.0mph /  9.7km/h 49% 0.00in /  0mm 218 W/m2
15:55 38.8 °F /  3.8 °C 22.2 °F /  -5.4 °C 30.42in /  1030hPa ESE 3.0mph /  4.8km/h 7.0mph /  11.3km/h 51% 0.00in /  0mm 167 W/m2
16:02 38.6 °F /  3.7 °C 21.1 °F /  -6.1 °C 30.42in /  1030hPa SE 3.0mph /  4.8km/h 4.0mph /  6.4km/h 49% 0.00in /  0mm 158 W/m2
16:08 38.8 °F /  3.8 °C 21.7 °F /  -5.7 °C 30.42in /  1030hPa South 4.0mph /  6.4km/h 5.0mph /  8km/h 50% 0.00in /  0mm 146 W/m2
16:14 38.5 °F /  3.6 °C 21.5 °F /  -5.8 °C 30.42in /  1030hPa South 4.0mph /  6.4km/h 6.0mph /  9.7km/h 50% 0.00in /  0mm 39 W/m2
16:20 38.4 °F /  3.6 °C 21.4 °F /  -5.9 °C 30.42in /  1030hPa SSE 4.0mph /  6.4km/h 6.0mph /  9.7km/h 50% 0.00in /  0mm 35 W/m2
16:25 38.3 °F /  3.5 °C 22.2 °F /  -5.4 °C 30.42in /  1030hPa SE 4.0mph /  6.4km/h 6.0mph /  9.7km/h 52% 0.00in /  0mm 32 W/m2
16:32 38.2 °F /  3.4 °C 21.6 °F /  -5.8 °C 30.42in /  1030hPa ESE 3.0mph /  4.8km/h 5.0mph /  8km/h 51% 0.00in /  0mm 28 W/m2
16:38 38.0 °F /  3.3 °C 21.9 °F /  -5.6 °C 30.42in /  1030hPa SE 4.0mph /  6.4km/h 5.0mph /  8km/h 52% 0.00in /  0mm 25 W/m2
16:43 37.8 °F /  3.2 °C 22.2 °F /  -5.4 °C 30.42in /  1030hPa SSE 3.0mph /  4.8km/h 5.0mph /  8km/h 53% 0.00in /  0mm 21 W/m2
16:49 37.5 °F /  3.1 °C 21.9 °F /  -5.6 °C 30.42in /  1030hPa SSE 2.0mph /  3.2km/h 2.0mph /  3.2km/h 53% 0.00in /  0mm 16 W/m2
16:55 37.1 °F /  2.8 °C 21.5 °F /  -5.8 °C 30.42in /  1030hPa SSE 1.0mph /  1.6km/h 4.0mph /  6.4km/h 53% 0.00in /  0mm 12 W/m2
17:02 36.6 °F /  2.6 °C 21.9 °F /  -5.6 °C 30.42in /  1030hPa SSE 1.0mph /  1.6km/h 1.0mph /  1.6km/h 55% 0.00in /  0mm 7 W/m2
17:08 36.2 °F /  2.3 °C 21.6 °F /  -5.8 °C 30.42in /  1030hPa SE 1.0mph /  1.6km/h 1.0mph /  1.6km/h 55% 0.00in /  0mm 5 W/m2
17:14 35.3 °F /  1.8 °C 22.0 °F /  -5.6 °C 30.42in /  1030hPa SE 1.0mph /  1.6km/h 1.0mph /  1.6km/h 58% 0.00in /  0mm 0 W/m2
17:19 33.9 °F /  1.1 °C 21.1 °F /  -6.1 °C 30.42in /  1030hPa ENE 1.0mph /  1.6km/h 1.0mph /  1.6km/h 59% 0.00in /  0mm 0 W/m2
17:25 32.8 °F /  0.4 °C 20.0 °F /  -6.7 °C 30.42in /  1030hPa ENE 1.0mph /  1.6km/h 2.0mph /  3.2km/h 59% 0.00in /  0mm 0 W/m2
17:32 31.9 °F /  -0.1 °C 20.0 °F /  -6.7 °C 30.42in /  1030hPa ENE 1.0mph /  1.6km/h 2.0mph /  3.2km/h 61% 0.00in /  0mm 0 W/m2
17:38 31.3 °F /  -0.4 °C 19.8 °F /  -6.8 °C 30.42in /  1030hPa ENE 1.0mph /  1.6km/h 2.0mph /  3.2km/h 62% 0.00in /  0mm 0 W/m2
17:43 30.7 °F /  -0.7 °C 20.0 °F /  -6.7 °C 30.42in /  1030hPa NE 1.0mph /  1.6km/h 3.0mph /  4.8km/h 64% 0.00in /  0mm 0 W/m2
17:50 30.4 °F /  -0.9 °C 19.7 °F /  -6.8 °C 30.42in /  1030hPa ENE 2.0mph /  3.2km/h 3.0mph /  4.8km/h 64% 0.00in /  0mm 0 W/m2
17:55 30.4 °F /  -0.9 °C 19.3 °F /  -7.1 °C 30.42in /  1030hPa ENE 3.0mph /  4.8km/h 3.0mph /  4.8km/h 63% 0.00in /  0mm 0 W/m2
18:02 30.1 °F /  -1.1 °C 19.4 °F /  -7 °C 30.42in /  1030hPa East 2.0mph /  3.2km/h 6.0mph /  9.7km/h 64% 0.00in /  0mm 0 W/m2
18:08 30.1 °F /  -1.1 °C 19.4 °F /  -7 °C 30.42in /  1030hPa ENE 3.0mph /  4.8km/h 6.0mph /  9.7km/h 64% 0.00in /  0mm 0 W/m2
18:13 29.8 °F /  -1.2 °C 19.1 °F /  -7.2 °C 30.42in /  1030hPa ENE 2.0mph /  3.2km/h 3.0mph /  4.8km/h 64% 0.00in /  0mm 0 W/m2
18:20 29.9 °F /  -1.2 °C 18.8 °F /  -7.3 °C 30.42in /  1030hPa ENE 3.0mph /  4.8km/h 3.0mph /  4.8km/h 63% 0.00in /  0mm 0 W/m2
18:25 29.6 °F /  -1.3 °C 18.9 °F /  -7.3 °C 30.42in /  1030hPa East 3.0mph /  4.8km/h 5.0mph /  8km/h 64% 0.00in /  0mm 0 W/m2
18:32 29.6 °F /  -1.3 °C 18.5 °F /  -7.5 °C 30.41in /  1029.7hPa ENE 3.0mph /  4.8km/h 3.0mph /  4.8km/h 63% 0.00in /  0mm 0 W/m2
18:38 29.4 °F /  -1.4 °C 18.7 °F /  -7.4 °C 30.42in /  1030hPa ENE 2.0mph /  3.2km/h 3.0mph /  4.8km/h 64% 0.00in /  0mm 0 W/m2
18:44 29.3 °F /  -1.5 °C 18.6 °F /  -7.4 °C 30.41in /  1029.7hPa ENE 2.0mph /  3.2km/h 2.0mph /  3.2km/h 64% 0.00in /  0mm 0 W/m2
18:49 29.0 °F /  -1.7 °C 18.7 °F /  -7.4 °C 30.41in /  1029.7hPa East 2.0mph /  3.2km/h 2.0mph /  3.2km/h 65% 0.00in /  0mm 0 W/m2
18:55 28.9 °F /  -1.7 °C 18.6 °F /  -7.4 °C 30.41in /  1029.7hPa ENE 2.0mph /  3.2km/h 2.0mph /  3.2km/h 65% 0.00in /  0mm 0 W/m2
19:02 28.9 °F /  -1.7 °C 18.6 °F /  -7.4 °C 30.41in /  1029.7hPa ENE 2.0mph /  3.2km/h 2.0mph /  3.2km/h 65% 0.00in /  0mm 0 W/m2
19:08 28.9 °F /  -1.7 °C 18.6 °F /  -7.4 °C 30.41in /  1029.7hPa ENE 2.0mph /  3.2km/h 2.0mph /  3.2km/h 65% 0.00in /  0mm 0 W/m2
19:13 28.8 °F /  -1.8 °C 18.5 °F /  -7.5 °C 30.41in /  1029.7hPa ENE 1.0mph /  1.6km/h 3.0mph /  4.8km/h 65% 0.00in /  0mm 0 W/m2
19:19 28.6 °F /  -1.9 °C 18.7 °F /  -7.4 °C 30.41in /  1029.7hPa ENE 1.0mph /  1.6km/h 2.0mph /  3.2km/h 66% 0.00in /  0mm 0 W/m2
19:26 28.5 °F /  -1.9 °C 18.6 °F /  -7.4 °C 30.41in /  1029.7hPa ENE 2.0mph /  3.2km/h 3.0mph /  4.8km/h 66% 0.00in /  0mm 0 W/m2
19:32 28.6 °F /  -1.9 °C 18.3 °F /  -7.6 °C 30.41in /  1029.7hPa ENE 2.0mph /  3.2km/h 2.0mph /  3.2km/h 65% 0.00in /  0mm 0 W/m2
19:38 28.5 °F /  -1.9 °C 18.2 °F /  -7.7 °C 30.41in /  1029.7hPa East 2.0mph /  3.2km/h 6.0mph /  9.7km/h 65% 0.00in /  0mm 0 W/m2
19:43 28.3 °F /  -2.1 °C 18.4 °F /  -7.6 °C 30.41in /  1029.7hPa ENE 3.0mph /  4.8km/h 3.0mph /  4.8km/h 66% 0.00in /  0mm 0 W/m2
19:50 28.3 °F /  -2.1 °C 18.4 °F /  -7.6 °C 30.40in /  1029.3hPa East 2.0mph /  3.2km/h 2.0mph /  3.2km/h 66% 0.00in /  0mm 0 W/m2
19:55 28.0 °F /  -2.2 °C 18.1 °F /  -7.7 °C 30.40in /  1029.3hPa ENE 2.0mph /  3.2km/h 3.0mph /  4.8km/h 66% 0.00in /  0mm 0 W/m2
20:02 28.0 °F /  -2.2 °C 18.5 °F /  -7.5 °C 30.40in /  1029.3hPa East 3.0mph /  4.8km/h 5.0mph /  8km/h 67% 0.00in /  0mm 0 W/m2
20:08 27.8 °F /  -2.3 °C 18.3 °F /  -7.6 °C 30.39in /  1029hPa East 3.0mph /  4.8km/h 5.0mph /  8km/h 67% 0.00in /  0mm 0 W/m2
20:13 28.0 °F /  -2.2 °C 18.1 °F /  -7.7 °C 30.39in /  1029hPa East 3.0mph /  4.8km/h 5.0mph /  8km/h 66% 0.00in /  0mm 0 W/m2
20:20 28.1 °F /  -2.2 °C 18.2 °F /  -7.7 °C 30.39in /  1029hPa East 4.0mph /  6.4km/h 4.0mph /  6.4km/h 66% 0.00in /  0mm 0 W/m2
20:25 28.1 °F /  -2.2 °C 18.2 °F /  -7.7 °C 30.39in /  1029hPa East 3.0mph /  4.8km/h 4.0mph /  6.4km/h 66% 0.00in /  0mm 0 W/m2
20:32 27.9 °F /  -2.3 °C 18.0 °F /  -7.8 °C 30.39in /  1029hPa East 3.0mph /  4.8km/h 3.0mph /  4.8km/h 66% 0.00in /  0mm 0 W/m2
20:38 28.0 °F /  -2.2 °C 18.1 °F /  -7.7 °C 30.39in /  1029hPa ENE 3.0mph /  4.8km/h 5.0mph /  8km/h 66% 0.00in /  0mm 0 W/m2
20:44 27.9 °F /  -2.3 °C 18.0 °F /  -7.8 °C 30.39in /  1029hPa ENE 3.0mph /  4.8km/h 4.0mph /  6.4km/h 66% 0.00in /  0mm 0 W/m2
20:50 27.9 °F /  -2.3 °C 18.0 °F /  -7.8 °C 30.39in /  1029hPa NE 3.0mph /  4.8km/h 3.0mph /  4.8km/h 66% 0.00in /  0mm 0 W/m2
20:55 27.6 °F /  -2.4 °C 18.1 °F /  -7.7 °C 30.39in /  1029hPa ENE 3.0mph /  4.8km/h 3.0mph /  4.8km/h 67% 0.00in /  0mm 0 W/m2
21:02 27.4 °F /  -2.6 °C 18.2 °F /  -7.7 °C 30.39in /  1029hPa ENE 3.0mph /  4.8km/h 5.0mph /  8km/h 68% 0.00in /  0mm 0 W/m2
21:08 27.3 °F /  -2.6 °C 18.1 °F /  -7.7 °C 30.39in /  1029hPa East 4.0mph /  6.4km/h 5.0mph /  8km/h 68% 0.00in /  0mm 0 W/m2
21:13 27.2 °F /  -2.7 °C 18.0 °F /  -7.8 °C 30.39in /  1029hPa East 3.0mph /  4.8km/h 4.0mph /  6.4km/h 68% 0.00in /  0mm 0 W/m2
21:19 26.8 °F /  -2.9 °C 18.0 °F /  -7.8 °C 30.38in /  1028.7hPa ENE 3.0mph /  4.8km/h 4.0mph /  6.4km/h 69% 0.00in /  0mm 0 W/m2
21:26 27.0 °F /  -2.8 °C 18.2 °F /  -7.7 °C 30.39in /  1029hPa East 3.0mph /  4.8km/h 6.0mph /  9.7km/h 69% 0.00in /  0mm 0 W/m2
21:32 27.1 °F /  -2.7 °C 17.9 °F /  -7.8 °C 30.39in /  1029hPa East 4.0mph /  6.4km/h 5.0mph /  8km/h 68% 0.00in /  0mm 0 W/m2
21:38 26.9 °F /  -2.8 °C 18.1 °F /  -7.7 °C 30.39in /  1029hPa East 4.0mph /  6.4km/h 5.0mph /  8km/h 69% 0.00in /  0mm 0 W/m2
21:43 26.6 °F /  -3 °C 17.8 °F /  -7.9 °C 30.38in /  1028.7hPa ENE 3.0mph /  4.8km/h 7.0mph /  11.3km/h 69% 0.00in /  0mm 0 W/m2
21:49 26.6 °F /  -3 °C 18.1 °F /  -7.7 °C 30.38in /  1028.7hPa ENE 3.0mph /  4.8km/h 4.0mph /  6.4km/h 70% 0.00in /  0mm 0 W/m2
21:56 26.9 °F /  -2.8 °C 18.1 °F /  -7.7 °C 30.38in /  1028.7hPa East 4.0mph /  6.4km/h 7.0mph /  11.3km/h 69% 0.00in /  0mm 0 W/m2
22:02 26.8 °F /  -2.9 °C 18.0 °F /  -7.8 °C 30.38in /  1028.7hPa ENE 4.0mph /  6.4km/h 4.0mph /  6.4km/h 69% 0.00in /  0mm 0 W/m2
22:08 26.6 °F /  -3 °C 17.8 °F /  -7.9 °C 30.38in /  1028.7hPa ENE 3.0mph /  4.8km/h 4.0mph /  6.4km/h 69% 0.00in /  0mm 0 W/m2
22:13 26.1 °F /  -3.3 °C 17.6 °F /  -8 °C 30.38in /  1028.7hPa ENE 3.0mph /  4.8km/h 3.0mph /  4.8km/h 70% 0.00in /  0mm 0 W/m2
22:20 25.9 °F /  -3.4 °C 17.8 °F /  -7.9 °C 30.38in /  1028.7hPa East 3.0mph /  4.8km/h 3.0mph /  4.8km/h 71% 0.00in /  0mm 0 W/m2
22:25 25.9 °F /  -3.4 °C 17.8 °F /  -7.9 °C 30.37in /  1028.3hPa ENE 3.0mph /  4.8km/h 7.0mph /  11.3km/h 71% 0.00in /  0mm 0 W/m2
22:32 26.4 °F /  -3.1 °C 18.3 °F /  -7.6 °C 30.37in /  1028.3hPa ENE 4.0mph /  6.4km/h 5.0mph /  8km/h 71% 0.00in /  0mm 0 W/m2
22:38 26.4 °F /  -3.1 °C 18.3 °F /  -7.6 °C 30.37in /  1028.3hPa ENE 4.0mph /  6.4km/h 5.0mph /  8km/h 71% 0.00in /  0mm 0 W/m2
22:44 26.1 °F /  -3.3 °C 18.0 °F /  -7.8 °C 30.37in /  1028.3hPa ENE 3.0mph /  4.8km/h 5.0mph /  8km/h 71% 0.00in /  0mm 0 W/m2
22:50 26.5 °F /  -3.1 °C 18.0 °F /  -7.8 °C 30.36in /  1028hPa NE 4.0mph /  6.4km/h 4.0mph /  6.4km/h 70% 0.00in /  0mm 0 W/m2
22:55 26.1 °F /  -3.3 °C 18.0 °F /  -7.8 °C 30.36in /  1028hPa ENE 3.0mph /  4.8km/h 5.0mph /  8km/h 71% 0.00in /  0mm 0 W/m2
23:02 26.0 °F /  -3.3 °C 17.9 °F /  -7.8 °C 30.36in /  1028hPa East 3.0mph /  4.8km/h 3.0mph /  4.8km/h 71% 0.00in /  0mm 0 W/m2
23:08 25.7 °F /  -3.5 °C 17.9 °F /  -7.8 °C 30.36in /  1028hPa East 2.0mph /  3.2km/h 3.0mph /  4.8km/h 72% 0.00in /  0mm 0 W/m2
23:13 25.5 °F /  -3.6 °C 17.7 °F /  -7.9 °C 30.36in /  1028hPa East 2.0mph /  3.2km/h 2.0mph /  3.2km/h 72% 0.00in /  0mm 0 W/m2
23:19 25.6 °F /  -3.6 °C 17.8 °F /  -7.9 °C 30.36in /  1028hPa ENE 2.0mph /  3.2km/h 2.0mph /  3.2km/h 72% 0.00in /  0mm 0 W/m2
23:26 25.4 °F /  -3.7 °C 17.6 °F /  -8 °C 30.36in /  1028hPa ENE 3.0mph /  4.8km/h 5.0mph /  8km/h 72% 0.00in /  0mm 0 W/m2
23:32 25.6 °F /  -3.6 °C 17.8 °F /  -7.9 °C 30.36in /  1028hPa ENE 3.0mph /  4.8km/h 4.0mph /  6.4km/h 72% 0.00in /  0mm 0 W/m2
23:38 25.5 °F /  -3.6 °C 17.7 °F /  -7.9 °C 30.36in /  1028hPa ENE 3.0mph /  4.8km/h 4.0mph /  6.4km/h 72% 0.00in /  0mm 0 W/m2
23:43 25.0 °F /  -3.9 °C 17.6 °F /  -8 °C 30.36in /  1028hPa ENE 2.0mph /  3.2km/h 3.0mph /  4.8km/h 73% 0.00in /  0mm 0 W/m2
23:49 25.0 °F /  -3.9 °C 17.6 °F /  -8 °C 30.35in /  1027.7hPa East 2.0mph /  3.2km/h 2.0mph /  3.2km/h 73% 0.00in /  0mm 0 W/m2
23:55 24.9 °F /  -3.9 °C 17.5 °F /  -8.1 °C 30.35in /  1027.7hPa East 2.0mph /  3.2km/h 3.0mph /  4.8km/h 73% 0.00in /  0mm 0 W/m2
Country Meadow, Clay, NY, USA
Compliments of Weather Underground - 2 mb